Time;durP1;ratioP1;P1;durP2;ratioP2;P2;SDS_P1;SDS_P2;PMS_P1;PMS_P2;Temp;Humidity;BMP_temperature;BMP_pressure;BME280_temperature;BME280_humidity;BME280_pressure;Samples;Min_cycle;Max_cycle;Signal;HPM_P1;HPM_P2
2021/12/04 00:00:34;;;;;;;11.30;5.70;;;;;;;-1.81;71.42;98661.29;104256;1305;25306;-30
2021/12/04 00:03:00;;;;;;;12.70;5.40;;;;;;;-1.77;71.43;98663.44;104280;1304;24240;-28
2021/12/04 00:05:26;;;;;;;9.10;4.80;;;;;;;-1.83;71.65;98660.05;104156;1304;24115;-25
2021/12/04 00:07:52;;;;;;;21.00;5.40;;;;;;;-1.88;71.98;98664.34;104186;1304;24248;-28
2021/12/04 00:10:20;;;;;;;16.40;5.10;;;;;;;-1.82;72.38;98660.52;104179;1308;24296;-25
2021/12/04 00:12:46;;;;;;;13.80;4.70;;;;;;;-1.71;72.37;98654.95;104223;1304;24289;-25
2021/12/04 00:15:12;;;;;;;8.90;4.10;;;;;;;-1.83;72.20;98654.81;104178;1304;24177;-28
2021/12/04 00:17:38;;;;;;;13.20;5.60;;;;;;;-1.96;72.74;98652.10;104114;1309;24227;-28
2021/12/04 00:20:04;;;;;;;19.00;6.90;;;;;;;-1.86;72.69;98643.20;104697;1304;22457;-25
2021/12/04 00:22:32;;;;;;;17.10;5.90;;;;;;;-1.91;72.84;98632.92;104645;1304;23144;-25
2021/12/04 00:24:57;;;;;;;13.30;5.50;;;;;;;-2.05;73.56;98637.17;104610;1304;22508;-25
2021/12/04 00:27:23;;;;;;;23.10;6.10;;;;;;;-2.07;73.99;98633.45;104740;1298;22477;-25
2021/12/04 00:29:49;;;;;;;11.90;5.70;;;;;;;-2.14;74.16;98630.53;104327;1307;22499;-28
2021/12/04 00:32:25;;;;;;;12.20;4.20;;;;;;;-2.31;74.55;98628.35;104742;1304;22479;-28
2021/12/04 00:35:00;;;;;;;12.80;5.80;;;;;;;-2.31;74.71;98622.39;104561;1307;22437;-25
2021/12/04 00:49:53;;;;;;;9.50;3.90;;;;;;;-2.35;76.34;98600.27;104702;1304;22875;-25
2021/12/04 00:52:19;;;;;;;14.40;4.10;;;;;;;-2.37;76.18;98591.02;104805;1304;22441;-25
2021/12/04 00:54:46;;;;;;;14.20;4.20;;;;;;;-2.40;76.58;98589.86;104774;1304;24497;-25
2021/12/04 00:57:12;;;;;;;8.80;4.00;;;;;;;-2.31;76.09;98595.07;104696;1304;22920;-25
2021/12/04 00:59:38;;;;;;;22.80;5.40;;;;;;;-2.20;75.71;98600.02;104754;1304;22438;-25
2021/12/04 01:02:04;;;;;;;8.80;3.40;;;;;;;-2.26;76.19;98595.83;104555;1304;24220;-24
2021/12/04 01:04:30;;;;;;;9.60;3.60;;;;;;;-2.27;76.00;98591.02;104506;1307;24150;-25
2021/12/04 01:06:56;;;;;;;13.50;3.70;;;;;;;-2.32;76.22;98594.41;104421;1305;22468;-28
2021/12/04 01:09:23;;;;;;;9.10;4.60;;;;;;;-2.44;76.59;98588.25;104848;1304;24303;-25
2021/12/04 01:11:49;;;;;;;12.00;4.10;;;;;;;-2.43;76.54;98585.21;104864;1304;22467;-28
2021/12/04 01:14:17;;;;;;;11.40;3.80;;;;;;;-2.41;76.37;98579.05;104673;1301;24268;-25
2021/12/04 01:16:43;;;;;;;13.40;3.10;;;;;;;-2.32;76.21;98574.58;104589;1304;22480;-25
2021/12/04 01:19:09;;;;;;;20.40;4.30;;;;;;;-2.22;76.01;98575.98;104693;1303;22753;-24
2021/12/04 01:21:35;;;;;;;8.50;4.70;;;;;;;-2.21;76.09;98573.66;105030;1304;24133;-25
2021/12/04 01:24:01;;;;;;;7.20;4.00;;;;;;;-2.21;76.18;98568.02;104525;1307;22434;-29
2021/12/04 01:26:27;;;;;;;7.30;4.40;;;;;;;-2.25;76.28;98560.37;104608;1310;22877;-28
2021/12/04 01:28:53;;;;;;;10.60;4.50;;;;;;;-2.24;76.16;98556.39;104851;1304;22483;-25
2021/12/04 01:31:20;;;;;;;7.90;4.20;;;;;;;-2.27;75.95;98546.52;104699;1304;24162;-28
2021/12/04 01:33:46;;;;;;;6.40;2.50;;;;;;;-2.40;76.68;98542.91;104573;1307;24177;-25
2021/12/04 01:36:12;;;;;;;12.00;2.80;;;;;;;-2.35;76.56;98534.05;104788;1304;22467;-28
2021/12/04 01:38:38;;;;;;;11.00;3.20;;;;;;;-2.36;76.49;98531.98;104903;1304;22477;-25
2021/12/04 01:41:04;;;;;;;5.10;2.90;;;;;;;-2.25;76.51;98524.73;104757;1304;22470;-25
2021/12/04 01:43:29;;;;;;;7.70;4.30;;;;;;;-2.20;76.20;98523.08;104668;1304;22548;-25
2021/12/04 01:45:56;;;;;;;5.50;2.60;;;;;;;-2.25;76.29;98518.40;104407;1310;24282;-28
2021/12/04 01:48:22;;;;;;;9.80;4.10;;;;;;;-2.18;75.58;98521.52;104691;1304;25934;-29
2021/12/04 01:50:48;;;;;;;6.10;3.70;;;;;;;-2.07;75.24;98521.53;104781;1297;24117;-25
2021/12/04 01:53:14;;;;;;;6.10;2.80;;;;;;;-1.93;74.64;98517.98;104712;1304;22471;-28
2021/12/04 01:55:40;;;;;;;11.10;3.50;;;;;;;-1.84;74.28;98521.23;104863;1305;22545;-28
2021/12/04 01:58:06;;;;;;;9.00;4.10;;;;;;;-1.84;74.30;98522.58;104374;1307;22449;-25
2021/12/04 02:00:36;;;;;;;9.10;2.60;;;;;;;-1.78;74.22;98514.52;104619;1304;24255;-28
2021/12/04 02:03:03;;;;;;;3.60;2.60;;;;;;;-1.81;74.22;98514.66;104844;1304;24388;-25
2021/12/04 02:05:30;;;;;;;8.90;3.40;;;;;;;-1.76;74.15;98514.88;104454;1308;22789;-25
2021/12/04 02:07:56;;;;;;;10.70;3.70;;;;;;;-1.66;73.93;98513.61;104821;1304;22694;-28
2021/12/04 02:10:23;;;;;;;7.30;3.60;;;;;;;-1.66;73.68;98512.54;104813;1304;24166;-28
2021/12/04 02:12:49;;;;;;;6.20;3.60;;;;;;;-1.80;74.14;98509.81;104708;1304;22597;-24
2021/12/04 02:15:15;;;;;;;12.40;3.60;;;;;;;-1.79;74.09;98513.02;104802;1304;24189;-28
2021/12/04 02:17:45;;;;;;;14.50;3.40;;;;;;;-1.88;74.35;98512.65;104523;1304;22451;-26
2021/12/04 02:20:15;;;;;;;13.00;3.00;;;;;;;-1.84;74.38;98507.70;104583;1302;22587;-25
2021/12/04 02:22:41;;;;;;;5.70;3.00;;;;;;;-1.72;73.98;98507.27;104679;1304;22843;-25
2021/12/04 02:25:09;;;;;;;17.10;3.10;;;;;;;-1.56;73.62;98500.23;104810;1304;22461;-25
2021/12/04 02:27:36;;;;;;;11.20;3.20;;;;;;;-1.51;72.72;98500.98;104452;1304;480004;-28
2021/12/04 02:30:04;;;;;;;4.90;2.90;;;;;;;-1.52;72.65;98498.98;104352;1304;24138;-25
2021/12/04 02:32:31;;;;;;;4.30;2.50;;;;;;;-1.60;72.95;98493.73;104561;1304;24293;-28
2021/12/04 02:34:57;;;;;;;5.30;3.20;;;;;;;-1.64;73.06;98486.20;104714;1304;24293;-29
2021/12/04 02:37:23;;;;;;;18.10;2.90;;;;;;;-1.55;73.02;98478.55;104852;1304;22474;-29
2021/12/04 02:39:57;;;;;;;7.00;2.80;;;;;;;-1.49;72.68;98472.20;104765;1305;22539;-29
2021/12/04 02:42:23;;;;;;;9.50;3.50;;;;;;;-1.46;72.35;98466.66;104743;1304;22746;-25
2021/12/04 02:44:49;;;;;;;11.70;3.60;;;;;;;-1.48;72.64;98468.07;104833;1304;22477;-26
2021/12/04 02:47:16;;;;;;;7.80;3.00;;;;;;;-1.48;72.08;98459.27;104584;1309;22485;-25
2021/12/04 02:49:42;;;;;;;4.60;2.50;;;;;;;-1.49;72.21;98455.19;104767;1304;22434;-25
2021/12/04 02:52:08;;;;;;;4.30;2.30;;;;;;;-1.48;72.50;98447.64;104664;1304;22438;-25
2021/12/04 02:54:35;;;;;;;6.30;3.10;;;;;;;-1.48;72.51;98442.66;104545;1302;22687;-25
2021/12/04 02:57:02;;;;;;;3.60;2.90;;;;;;;-1.44;72.57;98438.34;104535;1304;24322;-28
2021/12/04 02:59:28;;;;;;;4.60;2.10;;;;;;;-1.44;72.62;98439.36;104791;1304;22467;-25
2021/12/04 03:01:55;;;;;;;7.00;2.50;;;;;;;-1.49;72.72;98444.73;104748;1303;24240;-27
2021/12/04 03:04:23;;;;;;;5.50;2.60;;;;;;;-1.47;72.92;98448.00;104594;1304;22551;-26
2021/12/04 03:06:49;;;;;;;3.30;2.50;;;;;;;-1.43;72.80;98444.94;104774;1304;22444;-25
2021/12/04 03:09:15;;;;;;;4.10;2.10;;;;;;;-1.30;71.74;98441.59;104648;1304;24147;-24
2021/12/04 03:11:41;;;;;;;5.20;2.60;;;;;;;-1.36;72.33;98441.11;104653;1304;24281;-25
2021/12/04 03:14:08;;;;;;;7.50;3.30;;;;;;;-1.28;71.97;98444.80;104333;1307;24187;-25
2021/12/04 03:16:34;;;;;;;4.90;2.40;;;;;;;-1.44;72.65;98436.60;104417;1304;24167;-28
2021/12/04 03:19:01;;;;;;;4.80;3.20;;;;;;;-1.45;73.19;98437.38;104649;1304;22573;-25
2021/12/04 03:21:26;;;;;;;5.10;2.20;;;;;;;-1.36;72.52;98436.23;104685;1304;22440;-28
2021/12/04 03:23:57;;;;;;;4.80;2.80;;;;;;;-1.46;72.70;98431.99;104605;1305;22593;-29
2021/12/04 03:26:23;;;;;;;6.80;3.40;;;;;;;-1.44;72.60;98431.52;104743;1308;22697;-25
2021/12/04 03:28:50;;;;;;;4.30;2.40;;;;;;;-1.41;72.59;98427.84;104697;1304;24289;-28
2021/12/04 03:31:40;;;;;;;8.80;3.70;;;;;;;-1.53;73.45;98427.42;104250;1308;24168;-25
2021/12/04 03:41:32;;;;;;;6.50;3.90;;;;;;;-1.74;73.54;98411.20;104392;1306;24197;-24
2021/12/04 03:43:57;;;;;;;8.30;2.10;;;;;;;-1.78;73.87;98416.42;104382;1307;24151;-29
2021/12/04 03:46:25;;;;;;;4.30;3.20;;;;;;;-1.67;73.76;98415.63;104736;1304;22473;-25
2021/12/04 03:48:52;;;;;;;6.00;3.60;;;;;;;-1.65;73.72;98411.23;104437;1304;24217;-24
2021/12/04 03:51:18;;;;;;;3.80;2.10;;;;;;;-1.63;73.72;98411.21;104754;1308;24175;-28
2021/12/04 03:53:44;;;;;;;4.70;2.80;;;;;;;-1.64;73.67;98404.96;104599;1304;22472;-25
2021/12/04 03:56:11;;;;;;;5.30;2.90;;;;;;;-1.75;74.01;98405.13;104478;1304;22787;-25
2021/12/04 03:58:37;;;;;;;11.30;3.30;;;;;;;-1.70;73.78;98402.55;104591;1304;24394;-25
2021/12/04 04:01:03;;;;;;;8.90;3.30;;;;;;;-1.70;74.35;98399.69;104491;1304;24283;-25
2021/12/04 04:03:29;;;;;;;7.30;4.10;;;;;;;-1.72;74.47;98398.84;104478;1304;22697;-25
2021/12/04 04:05:55;;;;;;;7.90;3.50;;;;;;;-1.67;74.54;98392.41;104313;1304;23179;-25
2021/12/04 04:08:21;;;;;;;5.00;2.70;;;;;;;-1.59;74.22;98383.06;104594;1304;24280;-25
2021/12/04 04:10:49;;;;;;;6.60;4.10;;;;;;;-1.47;73.88;98377.17;104634;1303;22479;-28
2021/12/04 04:13:15;;;;;;;8.10;4.20;;;;;;;-1.47;73.45;98380.51;104395;1304;22967;-26
2021/12/04 04:15:41;;;;;;;7.50;3.90;;;;;;;-1.56;74.15;98378.38;104544;1304;22483;-25
2021/12/04 04:18:07;;;;;;;8.30;3.60;;;;;;;-1.54;74.26;98374.17;104537;1304;22609;-28
2021/12/04 04:20:34;;;;;;;6.50;4.10;;;;;;;-1.59;74.70;98369.94;104549;1304;24170;-25
2021/12/04 04:22:59;;;;;;;5.60;3.70;;;;;;;-1.54;74.97;98374.52;104667;1304;22570;-25
2021/12/04 04:25:25;;;;;;;6.00;3.40;;;;;;;-1.51;74.40;98367.05;104586;1304;22444;-28
2021/12/04 04:27:51;;;;;;;7.20;4.30;;;;;;;-1.51;74.34;98360.04;104582;1304;24237;-25
2021/12/04 04:30:18;;;;;;;5.20;3.40;;;;;;;-1.52;74.43;98352.79;104467;1304;22441;-29
2021/12/04 04:32:44;;;;;;;6.80;5.10;;;;;;;-1.41;74.44;98351.67;104383;1308;22449;-28
2021/12/04 04:35:14;;;;;;;5.20;3.40;;;;;;;-1.37;74.31;98352.38;104664;1304;24147;-28
2021/12/04 05:00:36;;;;;;;7.00;4.10;;;;;;;-1.34;74.97;98341.34;104526;1304;22467;-25
2021/12/04 05:13:02;;;;;;;7.70;4.20;;;;;;;-1.19;74.15;98324.98;104640;1304;22811;-30
2021/12/04 05:18:09;;;;;;;5.60;4.30;;;;;;;-1.19;74.57;98326.04;104477;1304;22485;-28
2021/12/04 05:20:37;;;;;;;7.20;3.10;;;;;;;-1.11;74.27;98324.70;104628;1304;24212;-25
2021/12/04 05:23:03;;;;;;;8.20;4.80;;;;;;;-1.20;74.35;98325.56;104544;1304;24388;-28
2021/12/04 05:25:30;;;;;;;6.40;4.10;;;;;;;-1.25;74.52;98325.89;104784;1304;22853;-25
2021/12/04 05:27:56;;;;;;;7.60;4.70;;;;;;;-1.22;74.32;98321.43;104280;1307;24298;-25
2021/12/04 05:30:22;;;;;;;7.60;3.60;;;;;;;-1.22;74.88;98326.67;104516;1304;24161;-29
2021/12/04 05:32:48;;;;;;;7.20;4.60;;;;;;;-1.20;74.83;98323.00;104573;1303;24157;-29
2021/12/04 05:35:14;;;;;;;7.70;4.90;;;;;;;-1.31;74.86;98320.88;104450;1304;22456;-25
2021/12/04 05:37:39;;;;;;;9.30;4.40;;;;;;;-1.38;75.41;98322.47;104467;1304;24112;-28
2021/12/04 05:40:10;;;;;;;7.50;4.70;;;;;;;-1.41;75.35;98321.34;104390;1310;22604;-28
2021/12/04 05:42:36;;;;;;;7.60;3.50;;;;;;;-1.40;75.37;98320.86;104619;1304;24211;-29
2021/12/04 05:45:04;;;;;;;5.40;4.10;;;;;;;-1.27;75.07;98320.54;104605;1305;24401;-28
2021/12/04 05:47:38;;;;;;;6.10;4.60;;;;;;;-1.14;74.42;98317.68;104648;1304;22554;-26
2021/12/04 05:57:29;;;;;;;7.00;4.60;;;;;;;-1.26;75.09;98316.05;104708;1304;22463;-25
2021/12/04 05:59:55;;;;;;;7.10;4.80;;;;;;;-1.24;74.98;98312.65;104539;1304;24420;-26
2021/12/04 06:02:22;;;;;;;7.30;4.80;;;;;;;-1.24;74.89;98317.89;104278;1308;22446;-28
2021/12/04 06:04:48;;;;;;;10.40;5.50;;;;;;;-1.18;74.58;98316.60;104546;1304;24286;-29
2021/12/04 06:07:14;;;;;;;15.00;5.10;;;;;;;-1.16;74.36;98315.59;104455;1304;24262;-31
2021/12/04 06:09:39;;;;;;;9.70;5.40;;;;;;;-1.26;74.98;98312.30;104301;1307;22502;-26
2021/12/04 06:12:08;;;;;;;9.80;4.80;;;;;;;-1.02;74.20;98313.89;104733;1304;24261;-26
2021/12/04 06:14:34;;;;;;;12.70;4.90;;;;;;;-1.11;73.98;98315.26;104800;1301;26103;-28
2021/12/04 06:16:59;;;;;;;6.70;4.60;;;;;;;-1.10;73.97;98319.21;104554;1304;24295;-25
2021/12/04 06:22:37;;;;;;;7.10;4.70;;;;;;;-1.15;73.93;98319.83;104410;1304;23086;-25
2021/12/04 06:24:43;;;;;;;6.30;4.40;;;;;;;-0.99;73.50;98327.07;104278;1308;22590;-28
2021/12/04 06:27:09;;;;;;;5.80;3.80;;;;;;;-0.97;73.04;98323.75;104596;1307;22459;-28
2021/12/04 06:29:35;;;;;;;7.10;5.20;;;;;;;-0.91;72.41;98323.12;104311;1310;24215;-28
2021/12/04 06:32:01;;;;;;;5.60;3.30;;;;;;;-0.90;72.55;98321.67;104537;1304;24352;-26
2021/12/04 06:34:27;;;;;;;8.10;4.10;;;;;;;-0.92;72.26;98319.42;104373;1304;23792;-25
2021/12/04 06:36:53;;;;;;;3.80;3.30;;;;;;;-0.81;72.43;98321.17;104230;1309;24167;-28
2021/12/04 06:39:19;;;;;;;6.00;3.10;;;;;;;-0.73;71.36;98325.56;104194;1304;24162;-25
2021/12/04 06:41:45;;;;;;;5.60;3.40;;;;;;;-0.77;71.15;98326.12;104263;1304;24137;-28
2021/12/04 06:44:11;;;;;;;11.70;4.60;;;;;;;-0.79;71.58;98328.86;104397;1308;24168;-28
2021/12/04 06:46:37;;;;;;;4.00;2.70;;;;;;;-0.80;71.24;98317.66;104329;1304;24295;-25
2021/12/04 06:51:34;;;;;;;8.90;3.20;;;;;;;-0.80;71.44;98325.08;104513;1304;24147;-28
2021/12/04 06:54:06;;;;;;;5.60;3.50;;;;;;;-0.71;70.87;98322.72;104188;1308;24239;-28
2021/12/04 06:56:34;;;;;;;6.10;2.50;;;;;;;-0.64;70.04;98316.24;104138;1304;24272;-25
2021/12/04 06:59:05;;;;;;;5.50;2.60;;;;;;;-0.75;70.53;98318.20;104194;1304;24168;-28
2021/12/04 07:01:31;;;;;;;7.30;2.90;;;;;;;-0.64;70.08;98312.39;104176;1308;24292;-28
2021/12/04 07:03:57;;;;;;;5.30;3.10;;;;;;;-0.63;69.62;98309.30;104153;1305;22687;-25
2021/12/04 07:06:23;;;;;;;4.20;2.50;;;;;;;-0.59;69.52;98310.13;104160;1308;24179;-25
2021/12/04 07:08:48;;;;;;;8.90;2.40;;;;;;;-0.63;70.20;98309.36;104072;1309;24316;-25
2021/12/04 07:11:14;;;;;;;6.10;4.20;;;;;;;-0.47;69.44;98305.80;104201;1310;24205;-28
2021/12/04 07:13:40;;;;;;;4.50;3.00;;;;;;;-0.34;68.53;98299.77;104204;1304;24289;-28
2021/12/04 07:16:08;;;;;;;8.90;3.00;;;;;;;-0.42;68.85;98297.09;104230;1304;22695;-29
2021/12/04 07:18:34;;;;;;;7.20;3.60;;;;;;;-0.31;68.55;98296.62;104212;1304;24167;-28
2021/12/04 07:21:00;;;;;;;13.30;4.40;;;;;;;-0.36;68.30;98297.61;104087;1310;24404;-26
2021/12/04 07:23:26;;;;;;;7.30;3.50;;;;;;;-0.43;68.54;98295.57;104129;1304;24271;-28
2021/12/04 07:25:52;;;;;;;6.40;3.40;;;;;;;-0.34;68.17;98293.89;104159;1304;24340;-28
2021/12/04 07:28:18;;;;;;;5.50;3.00;;;;;;;-0.23;67.82;98289.88;104180;1309;24144;-27
2021/12/04 07:30:43;;;;;;;5.20;2.70;;;;;;;-0.19;67.84;98291.36;104172;1304;24385;-29
2021/12/04 07:33:09;;;;;;;6.60;3.40;;;;;;;-0.25;68.22;98290.52;103942;1308;24159;-25
2021/12/04 07:35:35;;;;;;;6.50;2.90;;;;;;;-0.32;68.62;98291.27;104214;1310;24167;-28
2021/12/04 07:38:01;;;;;;;5.90;3.20;;;;;;;-0.28;68.74;98286.77;104204;1303;24172;-23
2021/12/04 07:40:27;;;;;;;10.60;4.60;;;;;;;-0.24;68.34;98285.71;104060;1310;24235;-25
2021/12/04 07:42:53;;;;;;;6.80;3.10;;;;;;;-0.22;67.89;98285.73;104078;1304;24144;-28
2021/12/04 07:45:19;;;;;;;6.00;3.10;;;;;;;-0.18;68.06;98287.27;104068;1304;24289;-25
2021/12/04 07:47:46;;;;;;;7.50;3.20;;;;;;;-0.21;67.70;98284.18;104250;1304;22857;-28
2021/12/04 07:50:13;;;;;;;3.40;2.30;;;;;;;-0.13;67.57;98284.19;104269;1305;24279;-28
2021/12/04 07:52:39;;;;;;;3.80;2.10;;;;;;;-0.03;66.89;98277.39;104218;1309;24267;-25
2021/12/04 07:55:06;;;;;;;5.60;2.60;;;;;;;0.06;67.14;98283.26;104171;1305;24276;-26
2021/12/04 07:57:32;;;;;;;7.50;3.70;;;;;;;0.03;66.65;98278.77;104069;1308;24163;-29
2021/12/04 07:59:58;;;;;;;5.20;3.10;;;;;;;0.08;66.65;98281.94;104158;1308;24168;-28
2021/12/04 08:02:24;;;;;;;7.40;3.40;;;;;;;0.02;67.13;98279.55;104169;1304;24137;-26
2021/12/04 08:04:50;;;;;;;4.90;2.60;;;;;;;0.02;66.97;98280.25;104131;1309;24177;-29
2021/12/04 08:07:16;;;;;;;4.90;2.10;;;;;;;0.11;66.84;98281.13;104175;1309;24337;-28
2021/12/04 08:09:42;;;;;;;5.30;2.20;;;;;;;0.22;66.58;98276.59;104214;1308;24179;-25
2021/12/04 08:12:10;;;;;;;10.10;2.30;;;;;;;0.27;66.28;98267.15;104193;1301;24274;-28
2021/12/04 08:14:37;;;;;;;6.60;2.10;;;;;;;0.24;66.66;98270.27;104172;1310;22459;-28
2021/12/04 08:17:03;;;;;;;3.30;2.10;;;;;;;0.29;66.59;98265.99;104339;1304;22788;-29
2021/12/04 08:19:29;;;;;;;9.60;2.50;;;;;;;0.40;66.20;98260.65;104586;1304;22557;-29
2021/12/04 08:21:55;;;;;;;4.10;2.60;;;;;;;0.40;66.20;98265.57;104745;1305;24238;-26
2021/12/04 08:24:21;;;;;;;3.90;2.40;;;;;;;0.43;66.13;98272.81;104702;1304;24188;-29
2021/12/04 08:26:47;;;;;;;6.70;3.00;;;;;;;0.43;66.11;98268.45;104780;1304;22485;-25
2021/12/04 08:29:14;;;;;;;6.80;3.80;;;;;;;0.42;66.48;98267.00;104885;1309;22530;-29
2021/12/04 08:31:42;;;;;;;4.90;3.00;;;;;;;0.47;66.43;98267.65;104730;1308;22444;-25
2021/12/04 08:34:08;;;;;;;5.00;2.20;;;;;;;0.46;66.50;98263.75;104282;1307;24157;-25
2021/12/04 08:36:34;;;;;;;7.10;2.60;;;;;;;0.59;66.03;98260.25;104212;1304;24289;-28
2021/12/04 08:39:01;;;;;;;4.30;2.60;;;;;;;0.59;66.11;98267.31;104544;1304;24154;-25
2021/12/04 08:41:27;;;;;;;3.80;2.60;;;;;;;0.63;67.05;98269.30;104329;1304;24240;-31
2021/12/04 08:43:54;;;;;;;4.40;2.90;;;;;;;0.65;66.55;98271.02;104687;1304;24313;-30
2021/12/04 08:46:21;;;;;;;4.30;2.20;;;;;;;0.61;66.67;98271.09;104927;1304;24269;-28
2021/12/04 08:48:49;;;;;;;6.10;3.10;;;;;;;0.64;66.66;98263.79;104611;1304;22474;-28
2021/12/04 08:51:17;;;;;;;4.30;2.90;;;;;;;0.70;66.59;98265.13;104789;1304;22467;-31
2021/12/04 08:53:43;;;;;;;12.90;3.50;;;;;;;0.85;66.16;98266.83;104787;1304;23147;-26
2021/12/04 08:56:09;;;;;;;7.00;4.30;;;;;;;0.86;66.14;98266.25;104622;1304;22582;-29
2021/12/04 08:58:39;;;;;;;6.80;3.50;;;;;;;0.86;66.13;98265.30;104372;1304;24298;-26
2021/12/04 09:01:06;;;;;;;11.00;4.10;;;;;;;0.86;66.45;98262.55;104413;1310;22513;-29
2021/12/04 09:03:36;;;;;;;6.20;4.30;;;;;;;0.90;66.38;98264.00;104597;1304;24160;-28
2021/12/04 09:06:04;;;;;;;7.90;4.20;;;;;;;0.93;66.73;98257.66;104348;1307;22948;-25
2021/12/04 09:08:31;;;;;;;8.30;3.70;;;;;;;0.98;66.20;98252.75;104592;1304;25042;-31
2021/12/04 09:10:58;;;;;;;7.60;3.90;;;;;;;1.00;66.33;98258.53;104583;1304;24154;-26
2021/12/04 09:13:24;;;;;;;5.00;3.10;;;;;;;1.02;66.26;98260.42;104245;1309;24186;-29
2021/12/04 09:15:50;;;;;;;5.40;4.00;;;;;;;1.04;66.14;98260.30;104323;1310;24274;-29
2021/12/04 09:18:16;;;;;;;6.60;3.60;;;;;;;1.06;66.51;98260.40;104297;1307;24181;-28
2021/12/04 09:20:42;;;;;;;5.90;3.70;;;;;;;1.11;66.15;98258.42;104166;1308;24162;-25
2021/12/04 09:23:14;;;;;;;8.60;4.90;;;;;;;1.09;66.01;98259.67;104184;1301;22644;-29
2021/12/04 09:25:44;;;;;;;9.20;4.70;;;;;;;1.09;66.15;98261.16;104265;1308;24269;-25
2021/12/04 09:31:25;;;;;;;7.40;4.50;;;;;;;1.17;66.48;98244.75;104818;1310;22649;-28
2021/12/04 09:36:12;;;;;;;8.00;4.00;;;;;;;1.38;65.13;98236.46;104877;1309;22514;-29
2021/12/04 10:01:13;;;;;;;7.70;3.20;;;;;;;1.28;64.86;98207.17;104432;1308;22647;-28
2021/12/04 10:06:30;;;;;;;8.40;4.60;;;;;;;1.42;64.03;98197.08;104586;1308;24274;-29
2021/12/04 10:17:01;;;;;;;5.60;4.40;;;;;;;1.50;64.03;98188.39;104736;1309;22498;-29
2021/12/04 10:24:42;;;;;;;5.70;2.80;;;;;;;1.55;63.49;98168.10;104360;1309;22590;-25
2021/12/04 10:34:54;;;;;;;6.60;4.10;;;;;;;1.78;62.34;98155.69;103783;1312;22491;-25
2021/12/04 10:37:24;;;;;;;5.40;4.00;;;;;;;1.79;62.02;98153.31;104575;1304;24168;-29
2021/12/04 10:39:51;;;;;;;4.80;3.30;;;;;;;1.87;62.06;98151.13;104266;1308;24228;-25
2021/12/04 10:42:21;;;;;;;7.20;3.30;;;;;;;1.81;62.06;98147.73;104267;1301;24218;-29
2021/12/04 10:44:51;;;;;;;8.10;4.80;;;;;;;1.75;61.96;98145.90;104130;1310;24162;-25
2021/12/04 10:47:23;;;;;;;5.50;3.00;;;;;;;1.71;62.39;98150.95;104613;1309;22856;-31
2021/12/04 10:52:20;;;;;;;10.60;5.30;;;;;;;1.77;62.41;98136.71;104215;1309;24180;-29
2021/12/04 10:54:51;;;;;;;11.00;5.50;;;;;;;1.79;62.49;98130.84;104188;1309;24289;-25
2021/12/04 10:57:36;;;;;;;5.30;3.50;;;;;;;1.91;62.55;98136.29;104246;1304;22909;-27
2021/12/04 11:00:15;;;;;;;8.70;4.30;;;;;;;1.82;62.65;98135.64;104132;1308;24214;-31
2021/12/04 11:02:45;;;;;;;7.60;4.00;;;;;;;1.84;62.38;98131.40;104176;1308;24253;-27
2021/12/04 11:18:34;;;;;;;6.90;4.20;;;;;;;1.84;62.72;98131.59;104116;1310;24162;-29
2021/12/04 11:25:55;;;;;;;6.70;4.90;;;;;;;2.21;61.32;98121.13;104182;1310;24209;-29
2021/12/04 11:38:43;;;;;;;10.10;5.00;;;;;;;2.19;61.11;98105.16;104783;1304;22666;-25
2021/12/04 11:43:50;;;;;;;9.70;4.50;;;;;;;2.08;61.72;98105.31;104761;1310;24260;-28
2021/12/04 11:46:21;;;;;;;5.70;3.50;;;;;;;2.10;61.78;98104.98;105039;1302;22559;-25
2021/12/04 11:48:47;;;;;;;9.40;3.70;;;;;;;2.18;61.84;98114.80;104841;1304;22477;-25
2021/12/04 11:51:17;;;;;;;13.00;6.00;;;;;;;2.15;62.56;98120.96;104891;1304;24161;-25
2021/12/04 11:53:44;;;;;;;7.40;4.00;;;;;;;2.21;62.03;98120.41;104809;1304;22582;-28
2021/12/04 11:56:15;;;;;;;6.20;3.60;;;;;;;2.21;62.32;98122.56;104768;1310;22694;-28
2021/12/04 11:58:42;;;;;;;7.10;3.60;;;;;;;2.26;61.43;98115.61;104653;1310;24172;-26
2021/12/04 12:01:23;;;;;;;6.30;3.60;;;;;;;2.22;61.53;98118.20;104938;1304;22477;-26
2021/12/04 12:03:52;;;;;;;5.20;3.50;;;;;;;2.19;61.73;98120.39;104369;1307;22508;-29
2021/12/04 12:06:27;;;;;;;4.90;3.10;;;;;;;2.32;61.30;98126.51;104571;1304;24166;-26
2021/12/04 12:09:01;;;;;;;4.00;2.60;;;;;;;2.24;61.34;98122.96;104640;1309;22539;-29
2021/12/04 12:11:27;;;;;;;6.60;3.70;;;;;;;2.21;61.75;98122.80;104869;1304;22674;-25
2021/12/04 12:13:58;;;;;;;8.20;3.10;;;;;;;2.18;61.75;98123.23;104836;1305;22833;-29
2021/12/04 12:16:27;;;;;;;8.80;4.10;;;;;;;2.15;62.07;98124.84;104541;1306;24279;-29
2021/12/04 12:18:57;;;;;;;6.10;3.60;;;;;;;2.13;62.23;98124.80;104526;1304;22685;-26
2021/12/04 12:21:29;;;;;;;5.20;4.10;;;;;;;2.15;61.90;98124.34;104704;1304;24271;-29
2021/12/04 12:26:36;;;;;;;5.20;3.40;;;;;;;2.05;62.27;98118.91;104384;1308;24111;-29
2021/12/04 12:34:15;;;;;;;4.90;3.20;;;;;;;2.01;61.76;98099.27;104354;1307;22431;-29
2021/12/04 12:36:41;;;;;;;4.50;2.90;;;;;;;2.07;62.10;98101.95;104593;1304;24252;-25
2021/12/04 12:39:16;;;;;;;3.20;2.40;;;;;;;2.12;62.10;98112.85;104145;1305;24325;-25
2021/12/04 12:41:43;;;;;;;7.40;3.70;;;;;;;2.20;61.33;98117.53;104665;1304;22486;-29
2021/12/04 12:44:13;;;;;;;6.20;3.50;;;;;;;2.21;61.09;98115.14;104717;1304;24232;-29
2021/12/04 12:46:43;;;;;;;6.80;4.00;;;;;;;2.10;61.51;98113.61;104814;1310;22524;-28
2021/12/04 12:49:22;;;;;;;5.70;3.10;;;;;;;2.02;62.27;98114.48;104704;1309;24194;-24
2021/12/04 12:51:54;;;;;;;6.30;3.70;;;;;;;2.19;61.67;98113.96;104880;1304;23860;-29
2021/12/04 12:54:25;;;;;;;7.50;2.80;;;;;;;2.16;61.66;98113.41;104732;1304;22488;-29
2021/12/04 12:56:58;;;;;;;7.10;3.60;;;;;;;2.10;62.44;98112.89;104472;1307;22707;-25
2021/12/04 12:59:37;;;;;;;49.90;16.30;;;;;;;2.13;62.28;98111.84;104971;1304;22694;-29
2021/12/04 13:12:09;;;;;;;22.50;13.60;;;;;;;2.21;62.46;98096.13;104727;1304;24285;-25
2021/12/04 13:14:36;;;;;;;16.10;8.30;;;;;;;2.25;61.88;98090.35;104829;1308;22553;-25
2021/12/04 13:17:08;;;;;;;8.20;3.80;;;;;;;2.22;61.95;98084.15;104697;1304;24177;-25
2021/12/04 13:19:37;;;;;;;5.50;3.20;;;;;;;2.50;59.18;98078.23;104751;1304;22693;-25
2021/12/04 13:22:07;;;;;;;7.60;5.80;;;;;;;2.45;59.23;98081.00;104597;1307;23838;-29
2021/12/04 13:24:35;;;;;;;9.50;3.00;;;;;;;2.34;60.13;98075.48;104250;1310;22439;-29
2021/12/04 13:29:30;;;;;;;31.50;5.40;;;;;;;2.30;60.54;98065.78;104384;1304;22520;-29
2021/12/04 13:31:57;;;;;;;9.00;3.50;;;;;;;2.18;60.96;98065.89;104686;1302;24112;-26
2021/12/04 13:34:27;;;;;;;7.90;5.10;;;;;;;2.20;60.51;98064.59;104634;1304;24292;-29
2021/12/04 13:36:53;;;;;;;5.10;3.10;;;;;;;2.35;60.05;98061.83;104675;1304;24147;-30
2021/12/04 13:39:19;;;;;;;18.80;8.00;;;;;;;2.37;59.93;98060.20;104562;1305;24176;-26
2021/12/04 13:41:46;;;;;;;7.90;2.70;;;;;;;2.34;60.24;98056.60;104742;1304;24111;-29
2021/12/04 13:44:13;;;;;;;46.30;10.60;;;;;;;2.31;60.28;98051.96;104509;1310;22635;-29
2021/12/04 13:46:39;;;;;;;30.20;7.80;;;;;;;2.33;61.15;98048.04;104460;1304;24272;-26
2021/12/04 13:49:05;;;;;;;108.80;27.70;;;;;;;2.38;61.25;98051.08;104689;1304;24273;-26
2021/12/04 13:51:31;;;;;;;189.80;84.20;;;;;;;2.39;61.24;98046.70;104371;1304;24168;-26
2021/12/04 13:53:57;;;;;;;207.70;80.10;;;;;;;2.42;61.46;98049.16;104517;1304;22590;-26
2021/12/04 13:56:24;;;;;;;96.80;20.90;;;;;;;2.38;61.42;98049.30;104213;1305;24158;-25
2021/12/04 13:58:54;;;;;;;107.00;21.50;;;;;;;2.31;61.95;98044.20;104086;1307;24296;-25
2021/12/04 14:01:21;;;;;;;42.90;9.40;;;;;;;2.24;62.03;98037.34;104665;1304;22573;-28
2021/12/04 14:03:47;;;;;;;34.20;8.90;;;;;;;2.12;62.29;98042.45;104838;1304;24172;-29
2021/12/04 14:06:15;;;;;;;34.60;7.90;;;;;;;2.05;62.66;98045.52;104684;1304;24180;-28
2021/12/04 14:08:42;;;;;;;79.90;26.50;;;;;;;2.03;62.71;98039.73;104538;1304;22473;-25
2021/12/04 14:11:09;;;;;;;235.60;74.40;;;;;;;2.06;62.27;98037.96;104792;1304;22464;-28
2021/12/04 14:13:37;;;;;;;227.80;72.00;;;;;;;1.90;63.01;98035.59;104550;1304;24254;-28
2021/12/04 14:16:05;;;;;;;89.80;16.10;;;;;;;1.80;63.62;98030.08;104744;1305;24176;-26
2021/12/04 14:18:31;;;;;;;53.80;14.50;;;;;;;1.74;64.00;98024.98;104828;1298;25278;-25
2021/12/04 14:21:00;;;;;;;34.20;7.10;;;;;;;1.70;64.35;98018.23;104935;1304;22485;-31